sensor_id;sensor_type;location;lat;lon;timestamp;pressure;altitude;pressure_sealevel;temperature
63220;BMP180;49320;52.512;13.448;2022-09-03T00:00:38;101526.00;;;22.00
63220;BMP180;49320;52.512;13.448;2022-09-03T00:05:49;101520.00;;;21.90
63220;BMP180;49320;52.512;13.448;2022-09-03T00:08:39;101522.00;;;21.90
63220;BMP180;49320;52.512;13.448;2022-09-03T00:11:24;101514.00;;;21.90
63220;BMP180;49320;52.512;13.448;2022-09-03T00:14:08;101498.00;;;21.90
63220;BMP180;49320;52.512;13.448;2022-09-03T00:16:54;101507.00;;;21.80
63220;BMP180;49320;52.512;13.448;2022-09-03T00:19:27;101506.00;;;21.80
63220;BMP180;49320;52.512;13.448;2022-09-03T00:22:17;101520.00;;;21.80
63220;BMP180;49320;52.512;13.448;2022-09-03T00:24:47;101510.00;;;21.80
63220;BMP180;49320;52.512;13.448;2022-09-03T00:27:21;101509.00;;;21.70
63220;BMP180;49320;52.512;13.448;2022-09-03T00:30:08;101504.00;;;21.70
63220;BMP180;49320;52.512;13.448;2022-09-03T00:32:56;101509.00;;;21.70
63220;BMP180;49320;52.512;13.448;2022-09-03T00:35:29;101513.00;;;21.60
63220;BMP180;49320;52.512;13.448;2022-09-03T00:37:59;101509.00;;;21.60
63220;BMP180;49320;52.512;13.448;2022-09-03T00:40:54;101512.00;;;21.60
63220;BMP180;49320;52.512;13.448;2022-09-03T00:46:58;101511.00;;;21.60
63220;BMP180;49320;52.512;13.448;2022-09-03T00:49:56;101503.00;;;21.50
63220;BMP180;49320;52.512;13.448;2022-09-03T00:55:48;101505.00;;;21.50
63220;BMP180;49320;52.512;13.448;2022-09-03T00:58:43;101498.00;;;21.40
63220;BMP180;49320;52.512;13.448;2022-09-03T01:01:42;101499.00;;;21.40
63220;BMP180;49320;52.512;13.448;2022-09-03T01:07:31;101496.00;;;21.30
63220;BMP180;49320;52.512;13.448;2022-09-03T01:10:28;101494.00;;;21.30
63220;BMP180;49320;52.512;13.448;2022-09-03T01:13:16;101504.00;;;21.30
63220;BMP180;49320;52.512;13.448;2022-09-03T01:16:26;101496.00;;;21.30
63220;BMP180;49320;52.512;13.448;2022-09-03T01:19:39;101498.00;;;21.30
63220;BMP180;49320;52.512;13.448;2022-09-03T01:22:43;101488.00;;;21.20
63220;BMP180;49320;52.512;13.448;2022-09-03T01:25:42;101488.00;;;21.20
63220;BMP180;49320;52.512;13.448;2022-09-03T01:32:10;101477.00;;;21.10
63220;BMP180;49320;52.512;13.448;2022-09-03T01:35:12;101474.00;;;21.10
63220;BMP180;49320;52.512;13.448;2022-09-03T01:38:26;101487.00;;;21.10
63220;BMP180;49320;52.512;13.448;2022-09-03T01:44:59;101478.00;;;21.00
63220;BMP180;49320;52.512;13.448;2022-09-03T01:47:50;101473.00;;;21.00
63220;BMP180;49320;52.512;13.448;2022-09-03T01:50:37;101474.00;;;20.90
63220;BMP180;49320;52.512;13.448;2022-09-03T01:53:27;101471.00;;;20.90
63220;BMP180;49320;52.512;13.448;2022-09-03T01:56:24;101474.00;;;20.90
63220;BMP180;49320;52.512;13.448;2022-09-03T01:59:15;101479.00;;;20.90
63220;BMP180;49320;52.512;13.448;2022-09-03T02:02:02;101479.00;;;20.90
63220;BMP180;49320;52.512;13.448;2022-09-03T02:04:32;101474.00;;;20.80
63220;BMP180;49320;52.512;13.448;2022-09-03T02:07:00;101480.00;;;20.80
63220;BMP180;49320;52.512;13.448;2022-09-03T02:09:28;101480.00;;;20.80
63220;BMP180;49320;52.512;13.448;2022-09-03T02:12:13;101482.00;;;20.80
63220;BMP180;49320;52.512;13.448;2022-09-03T02:14:41;101478.00;;;20.80
63220;BMP180;49320;52.512;13.448;2022-09-03T02:17:10;101488.00;;;20.80
63220;BMP180;49320;52.512;13.448;2022-09-03T02:19:37;101488.00;;;20.80
63220;BMP180;49320;52.512;13.448;2022-09-03T02:22:05;101483.00;;;20.80
63220;BMP180;49320;52.512;13.448;2022-09-03T02:24:32;101477.00;;;20.80
63220;BMP180;49320;52.512;13.448;2022-09-03T02:26:59;101479.00;;;20.80
63220;BMP180;49320;52.512;13.448;2022-09-03T02:29:26;101491.00;;;20.70
63220;BMP180;49320;52.512;13.448;2022-09-03T02:31:53;101481.00;;;20.70
63220;BMP180;49320;52.512;13.448;2022-09-03T02:34:20;101485.00;;;20.70
63220;BMP180;49320;52.512;13.448;2022-09-03T02:36:47;101487.00;;;20.70
63220;BMP180;49320;52.512;13.448;2022-09-03T02:39:15;101479.00;;;20.60
63220;BMP180;49320;52.512;13.448;2022-09-03T02:41:42;101485.00;;;20.60
63220;BMP180;49320;52.512;13.448;2022-09-03T02:44:23;101480.00;;;20.60
63220;BMP180;49320;52.512;13.448;2022-09-03T02:47:01;101491.00;;;20.60
63220;BMP180;49320;52.512;13.448;2022-09-03T02:49:29;101481.00;;;20.50
63220;BMP180;49320;52.512;13.448;2022-09-03T02:52:00;101484.00;;;20.50
63220;BMP180;49320;52.512;13.448;2022-09-03T02:54:27;101484.00;;;20.50
63220;BMP180;49320;52.512;13.448;2022-09-03T02:56:54;101475.00;;;20.50
63220;BMP180;49320;52.512;13.448;2022-09-03T02:59:21;101476.00;;;20.40
63220;BMP180;49320;52.512;13.448;2022-09-03T03:01:48;101492.00;;;20.40
63220;BMP180;49320;52.512;13.448;2022-09-03T03:04:15;101485.00;;;20.40
63220;BMP180;49320;52.512;13.448;2022-09-03T03:06:42;101473.00;;;20.40
63220;BMP180;49320;52.512;13.448;2022-09-03T03:09:13;101476.00;;;20.30
63220;BMP180;49320;52.512;13.448;2022-09-03T03:11:40;101480.00;;;20.30
63220;BMP180;49320;52.512;13.448;2022-09-03T03:14:06;101473.00;;;20.30
63220;BMP180;49320;52.512;13.448;2022-09-03T03:16:33;101477.00;;;20.30
63220;BMP180;49320;52.512;13.448;2022-09-03T03:19:00;101475.00;;;20.30
63220;BMP180;49320;52.512;13.448;2022-09-03T03:21:27;101477.00;;;20.20
63220;BMP180;49320;52.512;13.448;2022-09-03T03:23:54;101480.00;;;20.20
63220;BMP180;49320;52.512;13.448;2022-09-03T03:26:21;101473.00;;;20.20
63220;BMP180;49320;52.512;13.448;2022-09-03T03:28:57;101479.00;;;20.10
63220;BMP180;49320;52.512;13.448;2022-09-03T03:31:26;101482.00;;;20.10
63220;BMP180;49320;52.512;13.448;2022-09-03T03:33:58;101487.00;;;20.10
63220;BMP180;49320;52.512;13.448;2022-09-03T03:36:29;101487.00;;;20.10
63220;BMP180;49320;52.512;13.448;2022-09-03T03:38:59;101486.00;;;20.10
63220;BMP180;49320;52.512;13.448;2022-09-03T03:41:33;101486.00;;;20.10
63220;BMP180;49320;52.512;13.448;2022-09-03T03:44:05;101483.00;;;20.10
63220;BMP180;49320;52.512;13.448;2022-09-03T03:46:39;101497.00;;;20.10
63220;BMP180;49320;52.512;13.448;2022-09-03T03:49:07;101492.00;;;20.00
63220;BMP180;49320;52.512;13.448;2022-09-03T03:51:36;101499.00;;;20.00
63220;BMP180;49320;52.512;13.448;2022-09-03T03:54:04;101507.00;;;20.00
63220;BMP180;49320;52.512;13.448;2022-09-03T03:56:32;101494.00;;;20.10
63220;BMP180;49320;52.512;13.448;2022-09-03T03:58:59;101497.00;;;20.10
63220;BMP180;49320;52.512;13.448;2022-09-03T04:01:27;101502.00;;;20.10
63220;BMP180;49320;52.512;13.448;2022-09-03T04:03:56;101494.00;;;20.10
63220;BMP180;49320;52.512;13.448;2022-09-03T04:06:23;101492.00;;;20.20
63220;BMP180;49320;52.512;13.448;2022-09-03T04:08:50;101485.00;;;20.20
63220;BMP180;49320;52.512;13.448;2022-09-03T04:11:21;101497.00;;;20.20
63220;BMP180;49320;52.512;13.448;2022-09-03T04:13:49;101489.00;;;20.20
63220;BMP180;49320;52.512;13.448;2022-09-03T04:16:19;101491.00;;;20.20
63220;BMP180;49320;52.512;13.448;2022-09-03T04:18:48;101493.00;;;20.20
63220;BMP180;49320;52.512;13.448;2022-09-03T04:21:25;101477.00;;;20.20
63220;BMP180;49320;52.512;13.448;2022-09-03T04:23:55;101477.00;;;20.20
63220;BMP180;49320;52.512;13.448;2022-09-03T04:26:28;101486.00;;;20.10
63220;BMP180;49320;52.512;13.448;2022-09-03T04:29:01;101484.00;;;20.10
63220;BMP180;49320;52.512;13.448;2022-09-03T04:31:29;101487.00;;;20.10
63220;BMP180;49320;52.512;13.448;2022-09-03T04:33:57;101488.00;;;20.10
63220;BMP180;49320;52.512;13.448;2022-09-03T04:36:28;101485.00;;;20.10
63220;BMP180;49320;52.512;13.448;2022-09-03T04:38:58;101493.00;;;20.00
63220;BMP180;49320;52.512;13.448;2022-09-03T04:41:28;101486.00;;;20.00
63220;BMP180;49320;52.512;13.448;2022-09-03T04:43:57;101490.00;;;20.00
63220;BMP180;49320;52.512;13.448;2022-09-03T04:46:27;101486.00;;;20.00
63220;BMP180;49320;52.512;13.448;2022-09-03T04:49:00;101489.00;;;20.00
63220;BMP180;49320;52.512;13.448;2022-09-03T04:51:28;101478.00;;;20.00
63220;BMP180;49320;52.512;13.448;2022-09-03T04:54:00;101483.00;;;20.00
63220;BMP180;49320;52.512;13.448;2022-09-03T04:56:33;101492.00;;;20.00
63220;BMP180;49320;52.512;13.448;2022-09-03T04:59:07;101487.00;;;20.00
63220;BMP180;49320;52.512;13.448;2022-09-03T05:01:37;101489.00;;;20.00
63220;BMP180;49320;52.512;13.448;2022-09-03T05:04:06;101492.00;;;20.00
63220;BMP180;49320;52.512;13.448;2022-09-03T05:06:34;101490.00;;;20.00
63220;BMP180;49320;52.512;13.448;2022-09-03T05:09:03;101494.00;;;20.10
63220;BMP180;49320;52.512;13.448;2022-09-03T05:11:30;101500.00;;;20.10
63220;BMP180;49320;52.512;13.448;2022-09-03T05:13:58;101494.00;;;20.10
63220;BMP180;49320;52.512;13.448;2022-09-03T05:16:27;101496.00;;;20.10
63220;BMP180;49320;52.512;13.448;2022-09-03T05:18:58;101507.00;;;20.00
63220;BMP180;49320;52.512;13.448;2022-09-03T05:21:26;101497.00;;;20.00
63220;BMP180;49320;52.512;13.448;2022-09-03T05:23:54;101495.00;;;20.00
63220;BMP180;49320;52.512;13.448;2022-09-03T05:26:25;101490.00;;;20.00
63220;BMP180;49320;52.512;13.448;2022-09-03T05:28:55;101502.00;;;20.00
63220;BMP180;49320;52.512;13.448;2022-09-03T05:31:25;101513.00;;;20.00
63220;BMP180;49320;52.512;13.448;2022-09-03T05:33:57;101504.00;;;20.00
63220;BMP180;49320;52.512;13.448;2022-09-03T05:36:30;101509.00;;;20.00
63220;BMP180;49320;52.512;13.448;2022-09-03T05:38:58;101511.00;;;20.10
63220;BMP180;49320;52.512;13.448;2022-09-03T05:41:27;101509.00;;;20.10
63220;BMP180;49320;52.512;13.448;2022-09-03T05:43:56;101509.00;;;20.20
63220;BMP180;49320;52.512;13.448;2022-09-03T05:46:30;101510.00;;;20.20
63220;BMP180;49320;52.512;13.448;2022-09-03T05:49:00;101505.00;;;20.20
63220;BMP180;49320;52.512;13.448;2022-09-03T05:51:29;101501.00;;;20.30
63220;BMP180;49320;52.512;13.448;2022-09-03T05:53:57;101507.00;;;20.30
63220;BMP180;49320;52.512;13.448;2022-09-03T05:56:28;101495.00;;;20.30
63220;BMP180;49320;52.512;13.448;2022-09-03T05:58:59;101514.00;;;20.30
63220;BMP180;49320;52.512;13.448;2022-09-03T06:01:43;101499.00;;;20.30
63220;BMP180;49320;52.512;13.448;2022-09-03T06:04:19;101499.00;;;20.30
63220;BMP180;49320;52.512;13.448;2022-09-03T06:06:47;101501.00;;;20.30
63220;BMP180;49320;52.512;13.448;2022-09-03T06:09:18;101504.00;;;20.40
63220;BMP180;49320;52.512;13.448;2022-09-03T06:11:46;101505.00;;;20.40
63220;BMP180;49320;52.512;13.448;2022-09-03T06:14:16;101502.00;;;20.50
63220;BMP180;49320;52.512;13.448;2022-09-03T06:16:46;101505.00;;;20.50
63220;BMP180;49320;52.512;13.448;2022-09-03T06:19:16;101509.00;;;20.60
63220;BMP180;49320;52.512;13.448;2022-09-03T06:21:44;101501.00;;;20.60
63220;BMP180;49320;52.512;13.448;2022-09-03T06:24:18;101500.00;;;20.70
63220;BMP180;49320;52.512;13.448;2022-09-03T06:26:45;101496.00;;;20.70
63220;BMP180;49320;52.512;13.448;2022-09-03T06:29:13;101500.00;;;20.80
63220;BMP180;49320;52.512;13.448;2022-09-03T06:31:40;101508.00;;;20.90
63220;BMP180;49320;52.512;13.448;2022-09-03T06:34:06;101511.00;;;21.00
63220;BMP180;49320;52.512;13.448;2022-09-03T06:36:33;101508.00;;;21.10
63220;BMP180;49320;52.512;13.448;2022-09-03T06:39:00;101509.00;;;21.10
63220;BMP180;49320;52.512;13.448;2022-09-03T06:41:30;101506.00;;;21.20
63220;BMP180;49320;52.512;13.448;2022-09-03T06:44:06;101508.00;;;21.30
63220;BMP180;49320;52.512;13.448;2022-09-03T06:46:39;101506.00;;;21.40
63220;BMP180;49320;52.512;13.448;2022-09-03T06:49:09;101509.00;;;21.50
63220;BMP180;49320;52.512;13.448;2022-09-03T06:51:37;101515.00;;;21.60
63220;BMP180;49320;52.512;13.448;2022-09-03T06:54:07;101515.00;;;21.70
63220;BMP180;49320;52.512;13.448;2022-09-03T06:56:37;101503.00;;;21.80
63220;BMP180;49320;52.512;13.448;2022-09-03T06:59:12;101521.00;;;21.90
63220;BMP180;49320;52.512;13.448;2022-09-03T07:01:41;101511.00;;;22.00
63220;BMP180;49320;52.512;13.448;2022-09-03T07:04:13;101511.00;;;22.10
63220;BMP180;49320;52.512;13.448;2022-09-03T07:06:42;101510.00;;;22.20
63220;BMP180;49320;52.512;13.448;2022-09-03T07:09:12;101513.00;;;22.30
63220;BMP180;49320;52.512;13.448;2022-09-03T07:11:41;101514.00;;;22.40
63220;BMP180;49320;52.512;13.448;2022-09-03T07:14:18;101512.00;;;22.50
63220;BMP180;49320;52.512;13.448;2022-09-03T07:16:47;101505.00;;;22.60
63220;BMP180;49320;52.512;13.448;2022-09-03T07:19:14;101510.00;;;22.70
63220;BMP180;49320;52.512;13.448;2022-09-03T07:21:42;101516.00;;;22.70
63220;BMP180;49320;52.512;13.448;2022-09-03T07:24:15;101511.00;;;22.80
63220;BMP180;49320;52.512;13.448;2022-09-03T07:26:42;101516.00;;;22.80
63220;BMP180;49320;52.512;13.448;2022-09-03T07:29:13;101518.00;;;22.90
63220;BMP180;49320;52.512;13.448;2022-09-03T07:31:42;101522.00;;;23.00
63220;BMP180;49320;52.512;13.448;2022-09-03T07:34:12;101513.00;;;23.00
63220;BMP180;49320;52.512;13.448;2022-09-03T07:36:43;101524.00;;;23.00
63220;BMP180;49320;52.512;13.448;2022-09-03T07:39:15;101523.00;;;23.10
63220;BMP180;49320;52.512;13.448;2022-09-03T07:41:45;101517.00;;;23.20
63220;BMP180;49320;52.512;13.448;2022-09-03T07:44:17;101520.00;;;23.20
63220;BMP180;49320;52.512;13.448;2022-09-03T07:46:48;101517.00;;;23.30
63220;BMP180;49320;52.512;13.448;2022-09-03T07:49:17;101529.00;;;23.40
63220;BMP180;49320;52.512;13.448;2022-09-03T07:51:44;101516.00;;;23.50
63220;BMP180;49320;52.512;13.448;2022-09-03T07:54:12;101522.00;;;23.50
63220;BMP180;49320;52.512;13.448;2022-09-03T07:56:39;101519.00;;;23.60
63220;BMP180;49320;52.512;13.448;2022-09-03T07:59:08;101528.00;;;23.60
63220;BMP180;49320;52.512;13.448;2022-09-03T08:01:36;101525.00;;;23.70
63220;BMP180;49320;52.512;13.448;2022-09-03T08:04:07;101520.00;;;23.90
63220;BMP180;49320;52.512;13.448;2022-09-03T08:06:37;101536.00;;;24.00
63220;BMP180;49320;52.512;13.448;2022-09-03T08:09:08;101529.00;;;24.10
63220;BMP180;49320;52.512;13.448;2022-09-03T08:11:39;101528.00;;;24.30
63220;BMP180;49320;52.512;13.448;2022-09-03T08:14:10;101532.00;;;24.40
63220;BMP180;49320;52.512;13.448;2022-09-03T08:16:44;101526.00;;;24.50
63220;BMP180;49320;52.512;13.448;2022-09-03T08:19:14;101527.00;;;24.60
63220;BMP180;49320;52.512;13.448;2022-09-03T08:21:41;101529.00;;;24.70
63220;BMP180;49320;52.512;13.448;2022-09-03T08:24:09;101525.00;;;24.70
63220;BMP180;49320;52.512;13.448;2022-09-03T08:26:40;101519.00;;;24.80
63220;BMP180;49320;52.512;13.448;2022-09-03T08:29:16;101528.00;;;24.80
63220;BMP180;49320;52.512;13.448;2022-09-03T08:31:43;101532.00;;;24.90
63220;BMP180;49320;52.512;13.448;2022-09-03T08:34:10;101527.00;;;25.00
63220;BMP180;49320;52.512;13.448;2022-09-03T08:36:38;101528.00;;;25.00
63220;BMP180;49320;52.512;13.448;2022-09-03T08:39:09;101530.00;;;25.10
63220;BMP180;49320;52.512;13.448;2022-09-03T08:42:01;101516.00;;;25.00
63220;BMP180;49320;52.512;13.448;2022-09-03T08:44:58;101522.00;;;25.00
63220;BMP180;49320;52.512;13.448;2022-09-03T08:47:46;101506.00;;;25.00
63220;BMP180;49320;52.512;13.448;2022-09-03T08:50:28;101516.00;;;25.00
63220;BMP180;49320;52.512;13.448;2022-09-03T08:53:20;101520.00;;;25.00
63220;BMP180;49320;52.512;13.448;2022-09-03T08:55:51;101502.00;;;25.00
63220;BMP180;49320;52.512;13.448;2022-09-03T08:58:24;101505.00;;;25.00
63220;BMP180;49320;52.512;13.448;2022-09-03T09:07:16;101495.00;;;25.00
63220;BMP180;49320;52.512;13.448;2022-09-03T09:10:09;101501.00;;;25.10
63220;BMP180;49320;52.512;13.448;2022-09-03T09:13:29;101499.00;;;25.00
63220;BMP180;49320;52.512;13.448;2022-09-03T09:21:33;101494.00;;;25.20
63220;BMP180;49320;52.512;13.448;2022-09-03T09:24:22;101493.00;;;25.30
63220;BMP180;49320;52.512;13.448;2022-09-03T09:27:02;101495.00;;;25.30
63220;BMP180;49320;52.512;13.448;2022-09-03T09:29:37;101481.00;;;25.40
63220;BMP180;49320;52.512;13.448;2022-09-03T09:32:09;101494.00;;;25.40
63220;BMP180;49320;52.512;13.448;2022-09-03T09:34:38;101486.00;;;25.40
63220;BMP180;49320;52.512;13.448;2022-09-03T09:37:13;101477.00;;;25.50
63220;BMP180;49320;52.512;13.448;2022-09-03T09:39:57;101475.00;;;25.50
63220;BMP180;49320;52.512;13.448;2022-09-03T09:42:25;101483.00;;;25.60
63220;BMP180;49320;52.512;13.448;2022-09-03T09:44:52;101482.00;;;25.70
63220;BMP180;49320;52.512;13.448;2022-09-03T09:47:27;101470.00;;;25.70
63220;BMP180;49320;52.512;13.448;2022-09-03T09:50:00;101473.00;;;25.70
63220;BMP180;49320;52.512;13.448;2022-09-03T09:52:30;101471.00;;;25.70
63220;BMP180;49320;52.512;13.448;2022-09-03T09:55:16;101474.00;;;25.80
63220;BMP180;49320;52.512;13.448;2022-09-03T09:57:44;101477.00;;;25.90
63220;BMP180;49320;52.512;13.448;2022-09-03T10:00:17;101468.00;;;25.90
63220;BMP180;49320;52.512;13.448;2022-09-03T10:02:52;101478.00;;;26.00
63220;BMP180;49320;52.512;13.448;2022-09-03T10:05:29;101476.00;;;26.10
63220;BMP180;49320;52.512;13.448;2022-09-03T10:08:05;101462.00;;;26.10
63220;BMP180;49320;52.512;13.448;2022-09-03T10:10:40;101463.00;;;26.20
63220;BMP180;49320;52.512;13.448;2022-09-03T10:13:14;101462.00;;;26.20
63220;BMP180;49320;52.512;13.448;2022-09-03T10:19:30;101464.00;;;26.30
63220;BMP180;49320;52.512;13.448;2022-09-03T10:22:10;101457.00;;;26.40
63220;BMP180;49320;52.512;13.448;2022-09-03T10:24:59;101455.00;;;26.50
63220;BMP180;49320;52.512;13.448;2022-09-03T10:27:28;101451.00;;;26.50
63220;BMP180;49320;52.512;13.448;2022-09-03T10:29:57;101452.00;;;26.60
63220;BMP180;49320;52.512;13.448;2022-09-03T10:36:03;101450.00;;;26.70
63220;BMP180;49320;52.512;13.448;2022-09-03T10:38:33;101451.00;;;26.80
63220;BMP180;49320;52.512;13.448;2022-09-03T10:42:12;101446.00;;;26.90
63220;BMP180;49320;52.512;13.448;2022-09-03T10:44:59;101448.00;;;27.00
63220;BMP180;49320;52.512;13.448;2022-09-03T10:47:56;101447.00;;;27.10
63220;BMP180;49320;52.512;13.448;2022-09-03T10:51:04;101442.00;;;27.20
63220;BMP180;49320;52.512;13.448;2022-09-03T10:53:58;101450.00;;;27.30
63220;BMP180;49320;52.512;13.448;2022-09-03T10:56:56;101446.00;;;27.40
63220;BMP180;49320;52.512;13.448;2022-09-03T11:03:30;101436.00;;;27.70
63220;BMP180;49320;52.512;13.448;2022-09-03T11:05:45;101429.00;;;27.80
63220;BMP180;49320;52.512;13.448;2022-09-03T11:08:42;101406.00;;;27.90
63220;BMP180;49320;52.512;13.448;2022-09-03T11:11:20;101422.00;;;28.10
63220;BMP180;49320;52.512;13.448;2022-09-03T11:13:57;101419.00;;;28.20
63220;BMP180;49320;52.512;13.448;2022-09-03T11:16:44;101421.00;;;28.30
63220;BMP180;49320;52.512;13.448;2022-09-03T11:19:16;101413.00;;;28.40
63220;BMP180;49320;52.512;13.448;2022-09-03T11:21:47;101404.00;;;28.50
63220;BMP180;49320;52.512;13.448;2022-09-03T11:24:23;101422.00;;;28.60
63220;BMP180;49320;52.512;13.448;2022-09-03T11:27:23;101409.00;;;28.60
63220;BMP180;49320;52.512;13.448;2022-09-03T11:30:05;101412.00;;;28.70
63220;BMP180;49320;52.512;13.448;2022-09-03T11:38:04;101411.00;;;28.90
63220;BMP180;49320;52.512;13.448;2022-09-03T11:40:38;101404.00;;;29.00
63220;BMP180;49320;52.512;13.448;2022-09-03T11:43:06;101394.00;;;29.00
63220;BMP180;49320;52.512;13.448;2022-09-03T11:45:36;101388.00;;;29.10
63220;BMP180;49320;52.512;13.448;2022-09-03T11:48:38;101391.00;;;29.10
63220;BMP180;49320;52.512;13.448;2022-09-03T11:56:46;101390.00;;;28.80
63220;BMP180;49320;52.512;13.448;2022-09-03T11:59:23;101390.00;;;28.80
63220;BMP180;49320;52.512;13.448;2022-09-03T12:02:03;101390.00;;;28.80
63220;BMP180;49320;52.512;13.448;2022-09-03T12:04:44;101380.00;;;28.80
63220;BMP180;49320;52.512;13.448;2022-09-03T12:10:56;101366.00;;;28.90
63220;BMP180;49320;52.512;13.448;2022-09-03T12:14:04;101372.00;;;28.90
63220;BMP180;49320;52.512;13.448;2022-09-03T12:17:16;101374.00;;;29.00
63220;BMP180;49320;52.512;13.448;2022-09-03T12:19:52;101368.00;;;29.10
63220;BMP180;49320;52.512;13.448;2022-09-03T12:22:27;101365.00;;;29.20
63220;BMP180;49320;52.512;13.448;2022-09-03T12:24:54;101368.00;;;29.30
63220;BMP180;49320;52.512;13.448;2022-09-03T12:27:25;101367.00;;;29.40
63220;BMP180;49320;52.512;13.448;2022-09-03T12:29:59;101369.00;;;29.50
63220;BMP180;49320;52.512;13.448;2022-09-03T12:32:29;101372.00;;;29.60
63220;BMP180;49320;52.512;13.448;2022-09-03T12:35:10;101364.00;;;29.60
63220;BMP180;49320;52.512;13.448;2022-09-03T12:37:37;101370.00;;;29.60
63220;BMP180;49320;52.512;13.448;2022-09-03T12:40:28;101357.00;;;29.60
63220;BMP180;49320;52.512;13.448;2022-09-03T12:43:16;101367.00;;;29.60
63220;BMP180;49320;52.512;13.448;2022-09-03T12:46:03;101346.00;;;29.70
63220;BMP180;49320;52.512;13.448;2022-09-03T12:48:46;101341.00;;;29.80
63220;BMP180;49320;52.512;13.448;2022-09-03T12:51:41;101349.00;;;29.90
63220;BMP180;49320;52.512;13.448;2022-09-03T12:54:21;101344.00;;;29.90
63220;BMP180;49320;52.512;13.448;2022-09-03T12:56:57;101336.00;;;30.00
63220;BMP180;49320;52.512;13.448;2022-09-03T12:59:28;101348.00;;;30.10
63220;BMP180;49320;52.512;13.448;2022-09-03T13:02:12;101344.00;;;30.10
63220;BMP180;49320;52.512;13.448;2022-09-03T13:04:45;101342.00;;;30.10
63220;BMP180;49320;52.512;13.448;2022-09-03T13:07:23;101335.00;;;30.00
63220;BMP180;49320;52.512;13.448;2022-09-03T13:10:00;101342.00;;;29.90
63220;BMP180;49320;52.512;13.448;2022-09-03T13:12:40;101335.00;;;29.90
63220;BMP180;49320;52.512;13.448;2022-09-03T13:15:17;101347.00;;;29.90
63220;BMP180;49320;52.512;13.448;2022-09-03T13:20:49;101333.00;;;29.70
63220;BMP180;49320;52.512;13.448;2022-09-03T13:26:23;101335.00;;;29.60
63220;BMP180;49320;52.512;13.448;2022-09-03T13:32:22;101331.00;;;29.60
63220;BMP180;49320;52.512;13.448;2022-09-03T13:35:15;101325.00;;;29.70
63220;BMP180;49320;52.512;13.448;2022-09-03T13:37:48;101326.00;;;29.80
63220;BMP180;49320;52.512;13.448;2022-09-03T13:40:25;101332.00;;;30.00
63220;BMP180;49320;52.512;13.448;2022-09-03T13:43:14;101325.00;;;30.00
63220;BMP180;49320;52.512;13.448;2022-09-03T13:46:07;101334.00;;;30.00
63220;BMP180;49320;52.512;13.448;2022-09-03T13:48:43;101319.00;;;30.00
63220;BMP180;49320;52.512;13.448;2022-09-03T13:51:55;101315.00;;;30.00
63220;BMP180;49320;52.512;13.448;2022-09-03T13:54:33;101323.00;;;30.00
63220;BMP180;49320;52.512;13.448;2022-09-03T13:57:37;101305.00;;;30.00
63220;BMP180;49320;52.512;13.448;2022-09-03T14:00:09;101314.00;;;30.00
63220;BMP180;49320;52.512;13.448;2022-09-03T14:03:19;101313.00;;;30.00
63220;BMP180;49320;52.512;13.448;2022-09-03T14:06:08;101317.00;;;30.10
63220;BMP180;49320;52.512;13.448;2022-09-03T14:12:02;101320.00;;;30.30
63220;BMP180;49320;52.512;13.448;2022-09-03T14:14:53;101309.00;;;30.40
63220;BMP180;49320;52.512;13.448;2022-09-03T14:17:43;101316.00;;;30.40
63220;BMP180;49320;52.512;13.448;2022-09-03T14:20:22;101317.00;;;30.40
63220;BMP180;49320;52.512;13.448;2022-09-03T14:25:55;101300.00;;;30.40
63220;BMP180;49320;52.512;13.448;2022-09-03T14:28:32;101303.00;;;30.40
63220;BMP180;49320;52.512;13.448;2022-09-03T14:37:05;101304.00;;;30.30
63220;BMP180;49320;52.512;13.448;2022-09-03T14:39:55;101296.00;;;30.30
63220;BMP180;49320;52.512;13.448;2022-09-03T14:46:00;101301.00;;;30.50
63220;BMP180;49320;52.512;13.448;2022-09-03T14:52:35;101282.00;;;30.50
63220;BMP180;49320;52.512;13.448;2022-09-03T14:58:22;101281.00;;;30.30
63220;BMP180;49320;52.512;13.448;2022-09-03T15:01:02;101288.00;;;30.20
63220;BMP180;49320;52.512;13.448;2022-09-03T15:07:07;101290.00;;;30.00
63220;BMP180;49320;52.512;13.448;2022-09-03T15:12:39;101293.00;;;29.80
63220;BMP180;49320;52.512;13.448;2022-09-03T15:15:17;101286.00;;;29.70
63220;BMP180;49320;52.512;13.448;2022-09-03T15:18:28;101274.00;;;29.70
63220;BMP180;49320;52.512;13.448;2022-09-03T15:24:50;101285.00;;;29.70
63220;BMP180;49320;52.512;13.448;2022-09-03T15:30:44;101281.00;;;29.80
63220;BMP180;49320;52.512;13.448;2022-09-03T15:33:38;101287.00;;;29.70
63220;BMP180;49320;52.512;13.448;2022-09-03T15:36:20;101286.00;;;29.70
63220;BMP180;49320;52.512;13.448;2022-09-03T15:39:21;101296.00;;;29.60
63220;BMP180;49320;52.512;13.448;2022-09-03T15:42:13;101286.00;;;29.50
63220;BMP180;49320;52.512;13.448;2022-09-03T15:44:53;101288.00;;;29.50
63220;BMP180;49320;52.512;13.448;2022-09-03T15:47:47;101279.00;;;29.40
63220;BMP180;49320;52.512;13.448;2022-09-03T15:50:55;101279.00;;;29.40
63220;BMP180;49320;52.512;13.448;2022-09-03T15:53:36;101285.00;;;29.40
63220;BMP180;49320;52.512;13.448;2022-09-03T15:56:31;101279.00;;;29.50
63220;BMP180;49320;52.512;13.448;2022-09-03T15:59:18;101290.00;;;29.50
63220;BMP180;49320;52.512;13.448;2022-09-03T16:02:06;101286.00;;;29.50
63220;BMP180;49320;52.512;13.448;2022-09-03T16:08:06;101285.00;;;29.50
63220;BMP180;49320;52.512;13.448;2022-09-03T16:10:53;101286.00;;;29.50
63220;BMP180;49320;52.512;13.448;2022-09-03T16:14:04;101282.00;;;29.50
63220;BMP180;49320;52.512;13.448;2022-09-03T16:17:07;101288.00;;;29.40
63220;BMP180;49320;52.512;13.448;2022-09-03T16:19:49;101293.00;;;29.40
63220;BMP180;49320;52.512;13.448;2022-09-03T16:22:30;101295.00;;;29.30
63220;BMP180;49320;52.512;13.448;2022-09-03T16:25:19;101286.00;;;29.30